createdAt,value
2023-12-03T00:02:08.656Z,7.27
2023-12-03T00:04:37.331Z,8.57
2023-12-03T00:07:05.765Z,7.90
2023-12-03T00:09:33.667Z,6.77
2023-12-03T00:12:02.700Z,7.27
2023-12-03T00:14:30.385Z,8.47
2023-12-03T00:16:58.054Z,7.00
2023-12-03T00:19:26.357Z,6.67
2023-12-03T00:21:54.287Z,7.37
2023-12-03T00:24:22.315Z,7.47
2023-12-03T00:26:50.233Z,7.20
2023-12-03T00:29:19.208Z,6.60
2023-12-03T00:31:47.053Z,7.33
2023-12-03T00:34:14.818Z,7.63
2023-12-03T00:36:42.533Z,6.90
2023-12-03T00:39:10.342Z,6.53
2023-12-03T00:41:38.105Z,6.80
2023-12-03T00:44:05.963Z,7.07
2023-12-03T00:46:34.991Z,6.73
2023-12-03T00:49:02.908Z,7.83
2023-12-03T00:51:30.674Z,7.87
2023-12-03T00:53:58.316Z,6.40
2023-12-03T00:56:26.058Z,6.57
2023-12-03T00:58:53.755Z,7.17
2023-12-03T01:01:21.751Z,6.53
2023-12-03T01:03:50.917Z,5.70
2023-12-03T01:06:18.689Z,7.57
2023-12-03T01:08:46.516Z,6.77
2023-12-03T01:11:14.296Z,8.30
2023-12-03T01:13:42.254Z,6.63
2023-12-03T01:16:16.252Z,8.07
2023-12-03T01:18:44.142Z,7.37
2023-12-03T01:21:13.240Z,6.87
2023-12-03T01:23:41.012Z,4.83
2023-12-03T01:26:09.571Z,6.30
2023-12-03T01:28:37.199Z,7.27
2023-12-03T01:31:05.054Z,6.40
2023-12-03T01:33:34.127Z,5.40
2023-12-03T01:36:01.889Z,6.90
2023-12-03T01:38:31.418Z,6.97
2023-12-03T01:40:59.059Z,7.00
2023-12-03T01:43:26.810Z,7.50
2023-12-03T01:45:53.550Z,6.13
2023-12-03T01:48:21.462Z,6.73
2023-12-03T01:50:50.585Z,7.60
2023-12-03T01:53:20.215Z,7.37
2023-12-03T01:55:49.336Z,6.67
2023-12-03T01:58:17.039Z,7.70
2023-12-03T02:00:44.738Z,7.50
2023-12-03T02:03:12.627Z,8.57
2023-12-03T02:05:40.350Z,8.87
2023-12-03T02:08:08.093Z,7.47
2023-12-03T02:10:35.892Z,8.00
2023-12-03T02:13:05.028Z,8.63
2023-12-03T02:15:32.756Z,9.37
2023-12-03T02:18:00.553Z,7.83
2023-12-03T02:20:28.229Z,10.37
2023-12-03T02:23:01.344Z,9.90
2023-12-03T02:25:29.091Z,10.40
2023-12-03T02:27:56.802Z,9.87
2023-12-03T02:30:24.611Z,10.90
2023-12-03T02:32:52.424Z,11.10
2023-12-03T02:35:20.101Z,10.00
2023-12-03T02:37:47.772Z,9.47
2023-12-03T02:40:16.895Z,11.40
2023-12-03T02:42:44.801Z,11.30
2023-12-03T02:45:12.809Z,11.40
2023-12-03T02:47:40.715Z,10.50
2023-12-03T02:50:08.987Z,11.63
2023-12-03T02:52:36.864Z,10.40
2023-12-03T02:55:06.259Z,11.57
2023-12-03T02:57:35.666Z,10.23
2023-12-03T03:00:03.736Z,11.47
2023-12-03T03:02:31.397Z,11.10
2023-12-03T03:04:59.154Z,10.70
2023-12-03T03:07:28.437Z,9.80
2023-12-03T03:09:56.096Z,11.30
2023-12-03T03:12:23.738Z,12.47
2023-12-03T03:14:52.762Z,12.87
2023-12-03T03:17:20.467Z,11.67
2023-12-03T03:19:50.739Z,11.27
2023-12-03T03:22:18.386Z,11.93
2023-12-03T03:24:46.087Z,10.03
2023-12-03T03:27:13.867Z,11.93
2023-12-03T03:29:41.555Z,10.90
2023-12-03T03:32:10.630Z,12.27
2023-12-03T03:34:38.281Z,11.77
2023-12-03T03:37:06.656Z,11.57
2023-12-03T03:39:34.367Z,9.27
2023-12-03T03:42:02.021Z,13.10
2023-12-03T03:44:29.621Z,10.27
2023-12-03T03:46:57.403Z,10.43
2023-12-03T03:49:26.484Z,13.27
2023-12-03T03:51:54.345Z,9.60
2023-12-03T03:54:22.379Z,10.53
2023-12-03T03:56:49.994Z,9.87
2023-12-03T03:59:17.613Z,9.77
2023-12-03T04:01:46.117Z,12.40
2023-12-03T04:04:14.388Z,11.97
2023-12-03T04:06:46.500Z,13.10
2023-12-03T04:09:14.800Z,12.73
2023-12-03T04:11:43.066Z,12.07
2023-12-03T04:14:12.742Z,12.60
2023-12-03T04:16:41.119Z,12.20
2023-12-03T04:19:09.546Z,11.37
2023-12-03T04:21:37.874Z,12.23
2023-12-03T04:24:07.525Z,9.70
2023-12-03T04:26:35.255Z,11.00
2023-12-03T04:29:02.908Z,11.47
2023-12-03T04:31:30.554Z,11.47
2023-12-03T04:33:58.745Z,12.30
2023-12-03T04:36:28.220Z,10.60
2023-12-03T04:38:57.074Z,10.77
2023-12-03T04:41:26.111Z,14.23
2023-12-03T04:43:54.646Z,12.40
2023-12-03T04:46:22.305Z,12.73
2023-12-03T04:48:50.008Z,12.07
2023-12-03T04:51:17.779Z,12.27
2023-12-03T04:53:45.562Z,11.93
2023-12-03T04:56:13.346Z,12.37
2023-12-03T04:58:42.966Z,13.57
2023-12-03T05:01:11.006Z,13.17
2023-12-03T05:03:38.825Z,11.73
2023-12-03T05:06:09.673Z,12.67
2023-12-03T05:08:37.400Z,12.43
2023-12-03T05:11:05.861Z,13.67
2023-12-03T05:13:33.955Z,12.83
2023-12-03T05:16:05.461Z,13.03
2023-12-03T05:18:33.318Z,12.67
2023-12-03T05:21:01.050Z,12.97
2023-12-03T05:23:28.733Z,13.70
2023-12-03T05:25:58.128Z,13.80
2023-12-03T05:28:25.899Z,13.17
2023-12-03T05:30:53.763Z,11.43
2023-12-03T05:33:23.070Z,12.57
2023-12-03T05:35:51.162Z,13.17
2023-12-03T05:38:18.919Z,14.87
2023-12-03T05:40:46.975Z,13.80
2023-12-03T05:43:15.462Z,13.23
2023-12-03T05:45:43.399Z,12.97
2023-12-03T05:48:11.249Z,15.03
2023-12-03T05:50:41.283Z,13.17
2023-12-03T05:53:09.078Z,13.77
2023-12-03T05:55:36.795Z,14.37
2023-12-03T05:58:04.419Z,12.77
2023-12-03T06:00:32.863Z,15.87
2023-12-03T06:03:01.072Z,14.27
2023-12-03T06:05:28.770Z,14.87
2023-12-03T06:07:57.799Z,14.07
2023-12-03T06:10:25.584Z,13.47
2023-12-03T06:12:53.276Z,12.83
2023-12-03T06:15:21.137Z,12.93
2023-12-03T06:17:48.822Z,14.40
2023-12-03T06:20:16.636Z,14.33
2023-12-03T06:22:44.333Z,14.63
2023-12-03T06:25:13.335Z,14.43
2023-12-03T06:27:41.345Z,13.80
2023-12-03T06:30:10.030Z,13.27
2023-12-03T06:32:37.716Z,14.90
2023-12-03T06:35:06.460Z,15.77
2023-12-03T06:37:34.161Z,15.17
2023-12-03T06:40:01.935Z,13.53
2023-12-03T06:42:31.050Z,14.20
2023-12-03T06:44:58.862Z,15.13
2023-12-03T06:47:26.555Z,11.83
2023-12-03T06:49:54.329Z,14.20
2023-12-03T06:52:21.960Z,13.03
2023-12-03T06:54:49.660Z,15.53
2023-12-03T06:57:17.370Z,14.00
2023-12-03T06:59:46.417Z,14.67
2023-12-03T07:02:14.176Z,13.90
2023-12-03T07:04:41.857Z,14.70
2023-12-03T07:07:09.771Z,15.47
2023-12-03T07:09:40.090Z,14.83
2023-12-03T07:12:08.786Z,14.70
2023-12-03T07:14:36.647Z,13.70
2023-12-03T07:17:06.054Z,12.93
2023-12-03T07:19:33.961Z,12.93
2023-12-03T07:22:01.986Z,13.20
2023-12-03T07:24:29.943Z,12.83
2023-12-03T07:26:57.745Z,13.23
2023-12-03T07:29:27.222Z,12.50
2023-12-03T07:31:55.071Z,11.50
2023-12-03T07:34:24.199Z,19.70
2023-12-03T07:36:52.342Z,14.17
2023-12-03T07:39:20.721Z,14.23
2023-12-03T07:41:51.359Z,13.27
2023-12-03T07:44:19.451Z,13.43
2023-12-03T07:46:47.569Z,15.57
2023-12-03T07:49:15.349Z,13.00
2023-12-03T07:51:47.834Z,13.63
2023-12-03T07:54:15.861Z,12.53
2023-12-03T07:56:45.783Z,12.93
2023-12-03T07:59:13.448Z,14.13
2023-12-03T08:01:41.579Z,15.13
2023-12-03T08:04:09.460Z,12.30
2023-12-03T08:06:37.316Z,13.13
2023-12-03T08:09:06.485Z,12.27
2023-12-03T08:11:34.144Z,13.67
2023-12-03T08:14:02.025Z,11.73
2023-12-03T08:16:29.609Z,13.27
2023-12-03T08:18:57.503Z,11.30
2023-12-03T08:21:25.947Z,13.23
2023-12-03T08:23:53.907Z,14.40
2023-12-03T08:26:23.469Z,12.03
2023-12-03T08:28:51.082Z,12.37
2023-12-03T08:31:18.808Z,11.80
2023-12-03T08:33:46.625Z,11.20
2023-12-03T08:36:19.507Z,12.30
2023-12-03T08:38:47.773Z,11.73
2023-12-03T08:41:15.736Z,10.87
2023-12-03T08:43:44.776Z,12.23
2023-12-03T08:46:12.858Z,11.50
2023-12-03T08:48:40.864Z,10.83
2023-12-03T08:51:09.174Z,12.13
2023-12-03T08:53:36.896Z,12.93
2023-12-03T08:56:05.162Z,11.17
2023-12-03T08:58:32.836Z,13.10
2023-12-03T09:01:02.206Z,13.13
2023-12-03T09:03:29.896Z,12.07
2023-12-03T09:05:57.552Z,11.87
2023-12-03T09:08:25.200Z,10.77
2023-12-03T09:10:52.856Z,10.87
2023-12-03T09:13:20.540Z,11.77
2023-12-03T09:15:48.413Z,12.93
2023-12-03T09:18:17.444Z,12.43
2023-12-03T09:20:45.187Z,12.33
2023-12-03T09:23:12.917Z,13.33
2023-12-03T09:25:41.227Z,12.40
2023-12-03T09:28:08.903Z,10.53
2023-12-03T09:30:36.653Z,13.77
2023-12-03T09:33:04.667Z,11.37
2023-12-03T09:35:34.414Z,12.77
2023-12-03T09:38:02.075Z,12.17
2023-12-03T09:40:29.831Z,14.60
2023-12-03T09:43:00.010Z,10.87
2023-12-03T09:45:28.753Z,22.13
2023-12-03T09:48:01.100Z,16.77
2023-12-03T09:50:31.349Z,14.23
2023-12-03T09:53:01.557Z,14.23
2023-12-03T09:55:29.584Z,13.53
2023-12-03T09:57:57.854Z,13.87
2023-12-03T10:00:25.653Z,13.80
2023-12-03T10:02:54.778Z,12.70
2023-12-03T10:05:22.906Z,12.57
2023-12-03T10:07:50.889Z,14.23
2023-12-03T10:10:22.254Z,12.03
2023-12-03T10:12:52.601Z,12.83
2023-12-03T10:15:20.523Z,12.13
2023-12-03T10:17:48.678Z,13.13
2023-12-03T10:20:23.884Z,12.07
2023-12-03T10:22:52.712Z,11.77
2023-12-03T10:25:32.381Z,14.07
2023-12-03T10:28:01.955Z,11.73
2023-12-03T10:30:30.020Z,13.50
2023-12-03T10:32:58.095Z,13.17
2023-12-03T10:35:27.167Z,12.77
2023-12-03T10:37:55.104Z,11.40
2023-12-03T10:40:22.813Z,13.87
2023-12-03T10:42:51.904Z,12.60
2023-12-03T10:45:20.023Z,12.47
2023-12-03T10:47:47.813Z,11.77
2023-12-03T10:50:15.676Z,12.53
2023-12-03T10:52:43.551Z,15.40
2023-12-03T10:55:12.245Z,12.23
2023-12-03T10:57:50.349Z,12.00
2023-12-03T11:00:23.335Z,11.00
2023-12-03T11:03:10.617Z,12.47
2023-12-03T11:05:45.761Z,11.80
2023-12-03T11:08:14.247Z,12.67
2023-12-03T11:10:42.009Z,11.50
2023-12-03T11:13:10.768Z,10.50
2023-12-03T11:15:39.968Z,10.27
2023-12-03T11:18:09.608Z,11.97
2023-12-03T11:20:39.121Z,12.03
2023-12-03T11:23:38.332Z,12.07
2023-12-03T11:26:12.087Z,11.20
2023-12-03T11:28:53.972Z,11.33
2023-12-03T11:31:25.644Z,11.97
2023-12-03T11:33:57.249Z,9.97
2023-12-03T11:36:36.281Z,12.57
2023-12-03T11:39:04.641Z,11.23
2023-12-03T11:41:39.190Z,9.63
2023-12-03T11:44:20.083Z,10.13
2023-12-03T11:46:51.343Z,9.17
2023-12-03T11:49:19.442Z,11.07
2023-12-03T11:51:48.637Z,9.00
2023-12-03T11:54:22.230Z,10.70
2023-12-03T11:56:50.417Z,9.13
2023-12-03T11:59:18.259Z,9.50
2023-12-03T12:01:45.962Z,9.50
2023-12-03T12:04:22.888Z,9.80
2023-12-03T12:06:51.640Z,8.43
2023-12-03T12:09:23.842Z,8.33
2023-12-03T12:11:52.697Z,7.87
2023-12-03T12:14:21.290Z,8.00
2023-12-03T12:16:49.338Z,6.73
2023-12-03T12:19:17.209Z,6.40
2023-12-03T12:21:56.906Z,6.60
2023-12-03T12:24:25.059Z,7.27
2023-12-03T12:26:56.166Z,6.27
2023-12-03T12:29:23.942Z,7.00
2023-12-03T12:31:51.972Z,7.20
2023-12-03T12:34:22.081Z,7.63
2023-12-03T12:36:51.110Z,8.20
2023-12-03T12:39:28.279Z,8.13
2023-12-03T12:41:58.541Z,7.77
2023-12-03T12:44:46.616Z,7.80
2023-12-03T12:47:18.284Z,7.40
2023-12-03T12:49:53.425Z,7.00
2023-12-03T12:52:23.077Z,6.10
2023-12-03T12:54:55.263Z,5.53
2023-12-03T12:57:24.104Z,7.97
2023-12-03T12:59:52.991Z,9.57
2023-12-03T13:02:22.233Z,9.83
2023-12-03T13:04:50.652Z,8.67
2023-12-03T13:07:18.533Z,8.73
2023-12-03T13:09:47.266Z,9.33
2023-12-03T13:12:17.689Z,7.57
2023-12-03T13:14:45.355Z,6.97
2023-12-03T13:17:13.660Z,12.17
2023-12-03T13:19:41.767Z,10.87
2023-12-03T13:22:09.738Z,11.87
2023-12-03T13:24:38.547Z,10.70
2023-12-03T13:27:07.442Z,9.60
2023-12-03T13:29:37.278Z,7.43
2023-12-03T13:32:05.609Z,7.57
2023-12-03T13:34:33.574Z,8.03
2023-12-03T13:37:02.443Z,5.90
2023-12-03T13:39:33.334Z,6.23
2023-12-03T13:42:01.832Z,6.70
2023-12-03T13:44:29.544Z,8.17
2023-12-03T13:46:59.564Z,8.53
2023-12-03T13:49:27.596Z,6.50
2023-12-03T13:51:55.947Z,6.17
2023-12-03T13:54:23.978Z,5.77
2023-12-03T13:56:54.739Z,6.13
2023-12-03T13:59:22.544Z,5.23
2023-12-03T14:01:50.543Z,6.23
2023-12-03T14:04:21.355Z,6.97
2023-12-03T14:06:49.377Z,7.53
2023-12-03T14:09:17.041Z,7.23
2023-12-03T14:11:45.078Z,6.17
2023-12-03T14:14:13.596Z,6.00
2023-12-03T14:16:41.704Z,6.97
2023-12-03T14:19:13.871Z,7.13
2023-12-03T14:21:45.266Z,6.87
2023-12-03T14:24:13.206Z,6.30
2023-12-03T14:26:42.501Z,5.80
2023-12-03T14:29:10.269Z,7.10
2023-12-03T14:31:38.004Z,7.43
2023-12-03T14:34:06.228Z,9.03
2023-12-03T14:36:34.237Z,6.63
2023-12-03T14:39:03.433Z,7.83
2023-12-03T14:41:31.524Z,8.43
2023-12-03T14:43:59.395Z,7.40
2023-12-03T14:46:27.908Z,8.13
2023-12-03T14:48:55.768Z,11.70
2023-12-03T14:51:25.728Z,9.30
2023-12-03T14:53:55.593Z,8.30
2023-12-03T14:56:27.261Z,8.23
2023-12-03T14:58:56.656Z,7.60
2023-12-03T15:01:25.470Z,8.13
2023-12-03T15:03:53.426Z,7.73
2023-12-03T15:06:21.453Z,8.00
2023-12-03T15:08:50.717Z,11.70
2023-12-03T15:11:19.443Z,7.70
2023-12-03T15:13:48.578Z,7.27
2023-12-03T15:16:17.945Z,8.57
2023-12-03T15:18:46.064Z,9.37
2023-12-03T15:21:13.801Z,9.77
2023-12-03T15:23:45.347Z,6.70
2023-12-03T15:26:14.966Z,8.70
2023-12-03T15:28:45.266Z,8.23
2023-12-03T15:31:20.866Z,8.53
2023-12-03T15:33:53.684Z,9.37
2023-12-03T15:36:30.198Z,10.80
2023-12-03T15:39:04.336Z,9.67
2023-12-03T15:41:39.410Z,9.50
2023-12-03T15:44:15.183Z,9.70
2023-12-03T15:46:56.026Z,9.43
2023-12-03T15:49:25.540Z,12.30
2023-12-03T15:51:59.389Z,10.30
2023-12-03T15:54:37.389Z,9.87
2023-12-03T15:57:13.799Z,11.33
2023-12-03T15:59:45.131Z,12.27
2023-12-03T16:02:19.197Z,11.07
2023-12-03T16:04:54.684Z,10.57
2023-12-03T16:07:26.505Z,11.23
2023-12-03T16:09:58.046Z,10.73
2023-12-03T16:12:29.568Z,9.60
2023-12-03T16:15:02.287Z,12.60
2023-12-03T16:17:36.375Z,12.07
2023-12-03T16:20:09.780Z,10.10
2023-12-03T16:22:41.040Z,10.93
2023-12-03T16:25:10.913Z,12.00
2023-12-03T16:27:46.717Z,12.07
2023-12-03T16:30:19.725Z,10.90
2023-12-03T16:32:54.893Z,12.30
2023-12-03T16:35:26.085Z,12.60
2023-12-03T16:37:55.830Z,11.20
2023-12-03T16:40:33.680Z,13.30
2023-12-03T16:43:05.003Z,10.53
2023-12-03T16:45:33.713Z,11.40
2023-12-03T16:48:03.683Z,12.00
2023-12-03T16:50:32.500Z,11.00
2023-12-03T16:53:00.957Z,11.10
2023-12-03T16:55:29.743Z,16.00
2023-12-03T16:58:04.302Z,11.97
2023-12-03T17:00:33.245Z,12.37
2023-12-03T17:03:06.408Z,10.27
2023-12-03T17:05:35.805Z,11.00
2023-12-03T17:08:04.814Z,10.20
2023-12-03T17:10:35.297Z,11.67
2023-12-03T17:13:04.313Z,13.73
2023-12-03T17:15:33.716Z,12.43
2023-12-03T17:18:04.626Z,10.80
2023-12-03T17:20:34.680Z,11.70
2023-12-03T17:23:02.761Z,11.43
2023-12-03T17:25:30.948Z,11.47
2023-12-03T17:27:59.308Z,12.30
2023-12-03T17:30:27.393Z,11.63
2023-12-03T17:32:55.568Z,10.83
2023-12-03T17:35:25.043Z,10.60
2023-12-03T17:37:53.368Z,9.60
2023-12-03T17:40:22.898Z,12.10
2023-12-03T17:42:51.074Z,11.40
2023-12-03T17:45:19.756Z,9.10
2023-12-03T17:47:47.687Z,10.10
2023-12-03T17:50:15.806Z,10.57
2023-12-03T17:52:46.608Z,9.93
2023-12-03T17:55:15.242Z,11.20
2023-12-03T17:57:43.295Z,10.33
2023-12-03T18:00:13.062Z,9.97
2023-12-03T18:02:43.786Z,11.10
2023-12-03T18:05:16.281Z,10.87
2023-12-03T18:07:55.810Z,10.77
2023-12-03T18:10:24.533Z,13.97
2023-12-03T18:12:52.808Z,16.50
2023-12-03T18:15:20.951Z,11.60
2023-12-03T18:17:49.022Z,10.13
2023-12-03T18:20:21.800Z,11.17
2023-12-03T18:22:52.100Z,9.50
2023-12-03T18:25:25.076Z,9.10
2023-12-03T18:27:54.484Z,11.27
2023-12-03T18:30:22.574Z,10.57
2023-12-03T18:32:51.152Z,10.97
2023-12-03T18:35:20.102Z,10.27
2023-12-03T18:37:48.184Z,10.60
2023-12-03T18:40:17.787Z,10.30
2023-12-03T18:42:46.029Z,10.73
2023-12-03T18:45:14.625Z,12.13
2023-12-03T18:47:43.302Z,9.53
2023-12-03T18:50:11.822Z,8.83
2023-12-03T18:52:41.159Z,9.20
2023-12-03T18:55:11.881Z,9.40
2023-12-03T18:57:42.446Z,10.70
2023-12-03T19:00:15.153Z,10.67
2023-12-03T19:02:46.916Z,12.27
2023-12-03T19:05:17.045Z,10.77
2023-12-03T19:07:50.417Z,10.33
2023-12-03T19:10:20.623Z,11.43
2023-12-03T19:12:56.090Z,11.10
2023-12-03T19:15:29.154Z,10.30
2023-12-03T19:17:58.320Z,12.10
2023-12-03T19:20:26.598Z,11.37
2023-12-03T19:22:59.295Z,10.23
2023-12-03T19:25:27.194Z,10.23
2023-12-03T19:27:56.536Z,8.77
2023-12-03T19:30:25.980Z,9.77
2023-12-03T19:32:53.712Z,11.63
2023-12-03T19:35:22.767Z,10.10
2023-12-03T19:37:51.143Z,9.60
2023-12-03T19:40:22.725Z,9.37
2023-12-03T19:42:50.632Z,9.67
2023-12-03T19:45:32.906Z,10.53
2023-12-03T19:48:02.119Z,9.17
2023-12-03T19:50:35.468Z,12.73
2023-12-03T19:53:09.519Z,9.57
2023-12-03T19:55:40.312Z,10.40
2023-12-03T19:58:08.739Z,9.37
2023-12-03T20:00:38.160Z,10.37
2023-12-03T20:03:06.260Z,9.93
2023-12-03T20:05:34.817Z,9.50
2023-12-03T20:08:02.767Z,7.83
2023-12-03T20:10:30.621Z,7.13
2023-12-03T20:12:58.968Z,8.63
2023-12-03T20:15:33.386Z,9.83
2023-12-03T20:18:09.968Z,9.90
2023-12-03T20:20:38.720Z,8.90
2023-12-03T20:23:06.762Z,9.30
2023-12-03T20:25:35.202Z,9.43
2023-12-03T20:28:05.350Z,8.03
2023-12-03T20:30:34.309Z,7.47
2023-12-03T20:33:02.224Z,8.93
2023-12-03T20:35:31.625Z,9.47
2023-12-03T20:38:01.199Z,8.73
2023-12-03T20:40:29.854Z,8.90
2023-12-03T20:42:58.080Z,9.20
2023-12-03T20:45:26.577Z,8.40
2023-12-03T20:47:55.963Z,9.57
2023-12-03T20:50:24.184Z,10.17
2023-12-03T20:52:54.240Z,8.97
2023-12-03T20:55:24.418Z,7.37
2023-12-03T20:57:53.409Z,8.80
2023-12-03T21:00:21.637Z,9.37
2023-12-03T21:02:49.749Z,8.33
2023-12-03T21:05:20.811Z,8.93
2023-12-03T21:07:51.275Z,9.87
2023-12-03T21:10:21.075Z,9.23
2023-12-03T21:12:48.858Z,9.03
2023-12-03T21:15:16.848Z,7.53
2023-12-03T21:17:44.743Z,7.27
2023-12-03T21:20:13.317Z,9.80
2023-12-03T21:22:41.876Z,8.73
2023-12-03T21:25:10.525Z,8.33
2023-12-03T21:27:39.848Z,7.10
2023-12-03T21:30:11.657Z,9.63
2023-12-03T21:32:39.813Z,9.00
2023-12-03T21:35:09.900Z,9.73
2023-12-03T21:37:37.611Z,8.63
2023-12-03T21:40:08.157Z,8.67
2023-12-03T21:42:36.092Z,9.33
2023-12-03T21:45:06.880Z,8.37
2023-12-03T21:47:35.926Z,6.87
2023-12-03T21:50:04.059Z,9.47
2023-12-03T21:52:31.785Z,8.83
2023-12-03T21:54:59.708Z,8.33
2023-12-03T21:57:28.266Z,10.03
2023-12-03T21:59:56.131Z,10.27
2023-12-03T22:02:25.231Z,10.00
2023-12-03T22:04:53.783Z,8.43
2023-12-03T22:07:21.489Z,7.47
2023-12-03T22:09:49.179Z,7.77
2023-12-03T22:12:17.023Z,8.10
2023-12-03T22:14:44.689Z,7.50
2023-12-03T22:17:12.370Z,8.23
2023-12-03T22:19:41.466Z,7.90
2023-12-03T22:22:09.391Z,5.33
2023-12-03T22:24:37.271Z,9.90
2023-12-03T22:27:05.634Z,7.47
2023-12-03T22:29:44.379Z,8.77
2023-12-03T22:32:17.874Z,7.50
2023-12-03T22:34:46.883Z,8.40
2023-12-03T22:37:14.676Z,7.43
2023-12-03T22:39:42.586Z,8.07
2023-12-03T22:42:10.449Z,7.87
2023-12-03T22:44:38.439Z,8.30
2023-12-03T22:47:06.288Z,7.73
2023-12-03T22:49:34.265Z,8.83
2023-12-03T22:52:04.783Z,7.93
2023-12-03T22:54:32.586Z,10.87
2023-12-03T22:57:00.353Z,8.40
2023-12-03T22:59:27.958Z,8.63
2023-12-03T23:01:56.066Z,9.33
2023-12-03T23:04:23.967Z,7.40
2023-12-03T23:06:51.700Z,8.17
2023-12-03T23:09:20.690Z,8.73
2023-12-03T23:11:48.363Z,6.97
2023-12-03T23:14:16.093Z,8.63
2023-12-03T23:16:44.532Z,8.77
2023-12-03T23:19:13.307Z,7.40
2023-12-03T23:21:40.534Z,6.53
2023-12-03T23:24:09.486Z,8.20
2023-12-03T23:26:41.412Z,8.33
2023-12-03T23:29:10.073Z,6.83
2023-12-03T23:31:38.332Z,8.23
2023-12-03T23:34:08.142Z,7.83
2023-12-03T23:36:35.894Z,6.80
2023-12-03T23:39:03.705Z,7.57
2023-12-03T23:41:31.431Z,7.70
2023-12-03T23:44:00.744Z,6.23
2023-12-03T23:46:28.632Z,7.73
2023-12-03T23:48:56.480Z,7.73
2023-12-03T23:51:24.245Z,6.00
2023-12-03T23:53:51.919Z,6.73
2023-12-03T23:56:23.035Z,7.60
2023-12-03T23:58:50.715Z,5.60
